createdAt,value
2023-04-10T00:00:25.295Z,3.40
2023-04-10T00:02:52.991Z,3.15
2023-04-10T00:05:20.680Z,6.47
2023-04-10T00:07:49.200Z,6.57
2023-04-10T00:10:16.778Z,4.85
2023-04-10T00:12:44.401Z,6.25
2023-04-10T00:15:12.547Z,6.93
2023-04-10T00:17:40.265Z,4.93
2023-04-10T00:20:08.307Z,6.38
2023-04-10T00:22:36.142Z,4.40
2023-04-10T00:25:04.397Z,6.28
2023-04-10T00:27:31.878Z,6.68
2023-04-10T00:29:59.383Z,4.68
2023-04-10T00:32:27.016Z,4.15
2023-04-10T00:34:54.673Z,3.92
2023-04-10T00:37:22.486Z,3.15
2023-04-10T00:39:49.980Z,3.53
2023-04-10T00:42:17.709Z,2.95
2023-04-10T00:44:49.109Z,3.75
2023-04-10T00:47:17.119Z,3.05
2023-04-10T00:49:44.669Z,2.83
2023-04-10T00:52:12.782Z,3.10
2023-04-10T00:54:40.906Z,3.03
2023-04-10T00:57:08.606Z,2.97
2023-04-10T00:59:37.863Z,3.00
2023-04-10T01:02:05.530Z,3.30
2023-04-10T01:04:34.371Z,2.00
2023-04-10T01:07:18.438Z,3.20
2023-04-10T01:09:50.289Z,3.33
2023-04-10T01:12:26.956Z,3.10
2023-04-10T01:15:15.071Z,3.35
2023-04-10T01:18:06.647Z,2.78
2023-04-10T01:20:35.735Z,3.60
2023-04-10T01:23:12.932Z,3.97
2023-04-10T01:25:49.459Z,3.13
2023-04-10T01:28:19.725Z,2.72
2023-04-10T01:30:48.327Z,2.35
2023-04-10T01:33:27.548Z,3.03
2023-04-10T01:35:56.987Z,2.42
2023-04-10T01:38:27.895Z,2.53
2023-04-10T01:40:56.158Z,3.88
2023-04-10T01:43:28.076Z,3.20
2023-04-10T01:45:58.081Z,3.45
2023-04-10T01:48:25.937Z,2.75
2023-04-10T01:50:54.517Z,2.70
2023-04-10T01:53:22.680Z,3.22
2023-04-10T01:55:51.063Z,3.47
2023-04-10T01:58:19.117Z,3.05
2023-04-10T02:00:46.871Z,3.08
2023-04-10T02:03:14.931Z,3.42
2023-04-10T02:05:48.533Z,3.28
2023-04-10T02:08:38.995Z,4.20
2023-04-10T02:11:12.725Z,2.70
2023-04-10T02:13:41.720Z,3.70
2023-04-10T02:16:12.731Z,2.75
2023-04-10T02:18:42.030Z,2.92
2023-04-10T02:21:09.615Z,4.40
2023-04-10T02:23:37.497Z,3.53
2023-04-10T02:26:09.017Z,5.03
2023-04-10T02:28:39.064Z,4.22
2023-04-10T02:31:07.045Z,4.10
2023-04-10T02:33:34.700Z,3.80
2023-04-10T02:36:02.539Z,3.83
2023-04-10T02:38:30.338Z,4.25
2023-04-10T02:40:57.996Z,3.63
2023-04-10T02:43:25.541Z,3.47
2023-04-10T02:45:53.818Z,5.60
2023-04-10T02:48:21.523Z,5.72
2023-04-10T02:50:49.038Z,5.40
2023-04-10T02:53:17.023Z,2.97
2023-04-10T02:55:44.612Z,5.10
2023-04-10T02:58:14.534Z,5.25
2023-04-10T03:00:42.899Z,6.43
2023-04-10T03:03:10.757Z,3.28
2023-04-10T03:05:38.259Z,4.15
2023-04-10T03:08:05.986Z,3.10
2023-04-10T03:10:33.496Z,3.97
2023-04-10T03:13:01.743Z,3.50
2023-04-10T03:15:29.484Z,3.33
2023-04-10T03:17:57.696Z,4.40
2023-04-10T03:20:25.292Z,3.92
2023-04-10T03:22:52.837Z,3.85
2023-04-10T03:25:20.373Z,3.65
2023-04-10T03:27:48.510Z,4.57
2023-04-10T03:30:16.201Z,4.07
2023-04-10T03:32:44.161Z,3.88
2023-04-10T03:35:11.680Z,3.75
2023-04-10T03:37:39.228Z,4.13
2023-04-10T03:40:07.892Z,4.63
2023-04-10T03:42:35.644Z,4.18
2023-04-10T03:45:07.335Z,3.63
2023-04-10T03:47:35.196Z,3.30
2023-04-10T03:50:02.876Z,3.45
2023-04-10T03:52:30.361Z,3.70
2023-04-10T03:54:57.880Z,3.75
2023-04-10T03:57:28.388Z,3.53
2023-04-10T03:59:56.009Z,3.88
2023-04-10T04:02:23.991Z,4.05
2023-04-10T04:04:51.915Z,4.43
2023-04-10T04:07:19.789Z,4.55
2023-04-10T04:09:47.569Z,5.13
2023-04-10T04:12:15.075Z,5.10
2023-04-10T04:14:43.852Z,3.90
2023-04-10T04:17:13.565Z,4.75
2023-04-10T04:19:41.226Z,4.82
2023-04-10T04:22:09.001Z,3.70
2023-04-10T04:24:36.519Z,4.25
2023-04-10T04:27:04.485Z,4.18
2023-04-10T04:29:34.697Z,3.83
2023-04-10T04:32:02.296Z,4.03
2023-04-10T04:34:29.760Z,5.75
2023-04-10T04:36:57.463Z,3.88
2023-04-10T04:39:25.063Z,3.63
2023-04-10T04:41:52.716Z,4.50
2023-04-10T04:44:20.697Z,4.22
2023-04-10T04:46:48.330Z,3.50
2023-04-10T04:49:16.258Z,3.85
2023-04-10T04:51:43.934Z,4.28
2023-04-10T04:54:11.626Z,4.30
2023-04-10T04:56:39.341Z,3.95
2023-04-10T04:59:07.208Z,3.65
2023-04-10T05:01:34.885Z,3.55
2023-04-10T05:04:02.616Z,3.83
2023-04-10T05:06:30.977Z,4.25
2023-04-10T05:08:58.488Z,4.15
2023-04-10T05:11:25.993Z,4.35
2023-04-10T05:13:53.675Z,3.83
2023-04-10T05:16:21.594Z,5.65
2023-04-10T05:18:52.324Z,5.43
2023-04-10T05:21:20.031Z,4.90
2023-04-10T05:23:47.581Z,5.68
2023-04-10T05:26:15.060Z,3.38
2023-04-10T05:28:42.516Z,4.60
2023-04-10T05:31:10.312Z,3.70
2023-04-10T05:33:38.019Z,4.03
2023-04-10T05:36:06.322Z,4.65
2023-04-10T05:38:33.919Z,4.40
2023-04-10T05:41:01.536Z,4.93
2023-04-10T05:43:29.258Z,4.28
2023-04-10T05:45:57.365Z,3.90
2023-04-10T05:48:26.768Z,3.42
2023-04-10T05:50:54.300Z,3.47
2023-04-10T05:53:22.152Z,5.53
2023-04-10T05:55:52.949Z,3.90
2023-04-10T05:58:20.394Z,5.28
2023-04-10T06:00:48.093Z,6.38
2023-04-10T06:03:16.184Z,4.13
2023-04-10T06:05:43.890Z,3.80
2023-04-10T06:08:12.353Z,3.85
2023-04-10T06:10:39.840Z,3.28
2023-04-10T06:13:09.811Z,4.95
2023-04-10T06:15:39.660Z,4.47
2023-04-10T06:18:08.142Z,4.20
2023-04-10T06:20:35.691Z,4.28
2023-04-10T06:23:04.186Z,5.47
2023-04-10T06:25:31.685Z,4.50
2023-04-10T06:27:59.389Z,3.97
2023-04-10T06:30:31.351Z,4.75
2023-04-10T06:32:58.882Z,4.13
2023-04-10T06:35:26.654Z,4.82
2023-04-10T06:37:54.166Z,4.93
2023-04-10T06:40:21.667Z,4.68
2023-04-10T06:42:49.146Z,4.55
2023-04-10T06:45:17.044Z,5.18
2023-04-10T06:47:44.614Z,4.30
2023-04-10T06:50:12.158Z,5.07
2023-04-10T06:52:39.885Z,5.97
2023-04-10T06:55:07.849Z,4.45
2023-04-10T06:57:35.313Z,5.88
2023-04-10T07:00:03.192Z,4.70
2023-04-10T07:02:30.854Z,6.05
2023-04-10T07:04:58.443Z,4.80
2023-04-10T07:07:26.289Z,3.63
2023-04-10T07:09:54.055Z,4.30
2023-04-10T07:12:21.671Z,3.33
2023-04-10T07:14:49.190Z,5.32
2023-04-10T07:17:16.701Z,6.03
2023-04-10T07:19:44.172Z,3.65
2023-04-10T07:22:12.222Z,4.70
2023-04-10T07:24:39.704Z,4.05
2023-04-10T07:27:07.236Z,3.88
2023-04-10T07:29:34.850Z,4.95
2023-04-10T07:32:02.525Z,4.05
2023-04-10T07:34:31.608Z,3.83
2023-04-10T07:36:59.270Z,4.63
2023-04-10T07:39:27.065Z,4.40
2023-04-10T07:41:55.443Z,4.57
2023-04-10T07:44:23.086Z,4.53
2023-04-10T07:46:52.820Z,5.22
2023-04-10T07:49:20.276Z,4.07
2023-04-10T07:51:47.972Z,3.80
2023-04-10T07:54:15.609Z,5.05
2023-04-10T07:56:43.317Z,4.50
2023-04-10T07:59:10.926Z,4.68
2023-04-10T08:01:38.443Z,4.82
2023-04-10T08:04:06.526Z,4.78
2023-04-10T08:06:34.407Z,4.72
2023-04-10T08:09:02.558Z,4.07
2023-04-10T08:11:30.904Z,4.43
2023-04-10T08:13:59.598Z,3.42
2023-04-10T08:16:27.720Z,4.82
2023-04-10T08:18:56.519Z,5.38
2023-04-10T08:21:25.117Z,5.15
2023-04-10T08:23:52.865Z,4.38
2023-04-10T08:26:23.820Z,5.32
2023-04-10T08:28:52.931Z,4.25
2023-04-10T08:31:21.364Z,5.25
2023-04-10T08:33:49.321Z,6.55
2023-04-10T08:36:19.780Z,5.88
2023-04-10T08:38:48.041Z,5.35
2023-04-10T08:41:17.041Z,5.65
2023-04-10T08:43:46.414Z,6.43
2023-04-10T08:46:17.630Z,6.13
2023-04-10T08:48:45.149Z,4.55
2023-04-10T08:51:19.505Z,5.20
2023-04-10T08:53:48.744Z,5.90
2023-04-10T08:56:17.150Z,6.03
2023-04-10T08:58:44.709Z,6.35
2023-04-10T09:01:14.940Z,5.93
2023-04-10T09:03:42.578Z,6.03
2023-04-10T09:06:10.198Z,5.70
2023-04-10T09:08:37.856Z,6.82
2023-04-10T09:11:06.308Z,6.10
2023-04-10T09:13:44.634Z,5.03
2023-04-10T09:16:12.705Z,4.88
2023-04-10T09:18:44.635Z,4.95
2023-04-10T09:21:13.012Z,6.20
2023-04-10T09:23:40.566Z,5.10
2023-04-10T09:26:31.304Z,5.93
2023-04-10T09:29:00.064Z,6.65
2023-04-10T09:31:32.106Z,6.50
2023-04-10T09:34:10.536Z,5.30
2023-04-10T09:36:38.813Z,5.07
2023-04-10T09:39:06.993Z,6.00
2023-04-10T09:41:34.730Z,5.57
2023-04-10T09:44:12.577Z,5.20
2023-04-10T09:46:40.255Z,6.07
2023-04-10T09:49:08.397Z,4.50
2023-04-10T09:51:37.183Z,6.57
2023-04-10T09:54:04.840Z,4.47
2023-04-10T09:56:34.936Z,6.00
2023-04-10T09:59:02.681Z,5.82
2023-04-10T10:01:31.036Z,6.10
2023-04-10T10:04:02.770Z,7.03
2023-04-10T10:06:32.694Z,5.38
2023-04-10T10:09:04.859Z,5.60
2023-04-10T10:11:35.599Z,5.53
2023-04-10T10:14:04.655Z,6.43
2023-04-10T10:16:35.281Z,6.95
2023-04-10T10:19:02.742Z,6.30
2023-04-10T10:21:30.866Z,6.72
2023-04-10T10:24:00.383Z,6.57
2023-04-10T10:26:28.247Z,5.78
2023-04-10T10:28:57.811Z,5.75
2023-04-10T10:31:26.552Z,6.03
2023-04-10T10:33:54.258Z,5.72
2023-04-10T10:36:26.959Z,5.53
2023-04-10T10:39:12.989Z,6.03
2023-04-10T10:41:45.994Z,6.28
2023-04-10T10:44:28.071Z,8.05
2023-04-10T10:47:11.354Z,8.05
2023-04-10T10:50:07.849Z,7.00
2023-04-10T10:52:51.901Z,5.30
2023-04-10T10:55:25.653Z,8.65
2023-04-10T10:57:53.864Z,6.82
2023-04-10T11:00:27.266Z,8.82
2023-04-10T11:03:18.219Z,7.57
2023-04-10T11:05:56.052Z,8.38
2023-04-10T11:08:56.964Z,7.53
2023-04-10T11:11:25.332Z,7.38
2023-04-10T11:13:58.741Z,5.95
2023-04-10T11:16:37.115Z,5.93
2023-04-10T11:19:13.109Z,5.90
2023-04-10T11:22:16.156Z,6.95
2023-04-10T11:24:53.790Z,5.82
2023-04-10T11:27:41.216Z,6.18
2023-04-10T11:30:26.446Z,6.90
2023-04-10T11:32:55.047Z,4.45
2023-04-10T11:35:23.061Z,5.20
2023-04-10T11:37:50.785Z,6.10
2023-04-10T11:40:18.615Z,5.22
2023-04-10T11:42:46.230Z,4.47
2023-04-10T11:45:23.832Z,4.80
2023-04-10T11:47:55.284Z,5.22
2023-04-10T11:50:22.921Z,4.65
2023-04-10T11:52:51.413Z,4.78
2023-04-10T11:55:19.744Z,5.63
2023-04-10T11:57:47.299Z,4.97
2023-04-10T12:00:24.389Z,5.00
2023-04-10T12:02:54.093Z,4.70
2023-04-10T12:05:21.914Z,5.65
2023-04-10T12:07:50.300Z,6.15
2023-04-10T12:10:18.722Z,5.18
2023-04-10T12:12:46.530Z,6.53
2023-04-10T12:15:27.489Z,5.40
2023-04-10T12:17:55.503Z,4.68
2023-04-10T12:20:27.167Z,3.83
2023-04-10T12:22:57.776Z,4.65
2023-04-10T12:25:25.427Z,4.68
2023-04-10T12:27:53.230Z,3.55
2023-04-10T12:30:20.871Z,4.63
2023-04-10T12:32:54.514Z,3.63
2023-04-10T12:35:22.229Z,5.57
2023-04-10T12:37:50.570Z,4.35
2023-04-10T12:40:18.733Z,3.75
2023-04-10T12:42:46.415Z,4.47
2023-04-10T12:45:15.308Z,3.92
2023-04-10T12:47:49.724Z,4.13
2023-04-10T12:50:18.101Z,3.55
2023-04-10T12:52:46.760Z,5.40
2023-04-10T12:55:22.212Z,4.05
2023-04-10T12:57:49.924Z,4.43
2023-04-10T13:00:18.766Z,4.82
2023-04-10T13:02:47.288Z,3.88
2023-04-10T13:05:15.508Z,5.35
2023-04-10T13:07:43.536Z,4.07
2023-04-10T13:10:11.290Z,3.75
2023-04-10T13:12:42.601Z,2.60
2023-04-10T13:15:11.637Z,2.88
2023-04-10T13:17:39.162Z,3.38
2023-04-10T13:20:07.134Z,4.47
2023-04-10T13:22:34.741Z,3.92
2023-04-10T13:25:04.206Z,3.72
2023-04-10T13:27:31.863Z,3.45
2023-04-10T13:29:59.425Z,3.05
2023-04-10T13:32:27.133Z,3.13
2023-04-10T13:34:55.432Z,2.40
2023-04-10T13:37:25.614Z,3.28
2023-04-10T13:39:53.161Z,2.83
2023-04-10T13:42:20.716Z,3.85
2023-04-10T13:44:48.546Z,3.97
2023-04-10T13:47:16.388Z,3.88
2023-04-10T13:49:45.004Z,3.42
2023-04-10T13:52:15.303Z,4.80
2023-04-10T13:54:42.790Z,3.40
2023-04-10T13:57:10.332Z,4.50
2023-04-10T13:59:37.912Z,3.88
2023-04-10T14:02:05.473Z,4.43
2023-04-10T14:04:33.417Z,4.57
2023-04-10T14:07:02.705Z,4.57
2023-04-10T14:09:30.686Z,4.80
2023-04-10T14:11:58.758Z,5.72
2023-04-10T14:14:26.374Z,6.55
2023-04-10T14:16:53.988Z,5.72
2023-04-10T14:19:22.341Z,4.40
2023-04-10T14:21:50.238Z,3.20
2023-04-10T14:24:17.925Z,4.65
2023-04-10T14:26:45.431Z,3.70
2023-04-10T14:29:18.185Z,4.80
2023-04-10T14:31:57.569Z,5.03
2023-04-10T14:34:25.932Z,3.88
2023-04-10T14:36:56.634Z,4.13
2023-04-10T14:39:25.252Z,4.80
2023-04-10T14:41:52.908Z,3.20
2023-04-10T14:44:20.502Z,3.92
2023-04-10T14:46:48.335Z,2.58
2023-04-10T14:49:15.988Z,3.75
2023-04-10T14:51:44.800Z,3.08
2023-04-10T14:54:12.735Z,3.80
2023-04-10T14:56:40.526Z,3.10
2023-04-10T14:59:08.316Z,3.40
2023-04-10T15:01:38.693Z,2.88
2023-04-10T15:04:06.522Z,3.50
2023-04-10T15:06:34.630Z,2.65
2023-04-10T15:09:02.298Z,2.67
2023-04-10T15:11:29.781Z,3.00
2023-04-10T15:13:59.628Z,3.08
2023-04-10T15:16:27.453Z,4.10
2023-04-10T15:18:59.371Z,3.58
2023-04-10T15:21:28.284Z,3.72
2023-04-10T15:23:56.321Z,3.00
2023-04-10T15:26:24.996Z,3.28
2023-04-10T15:28:53.260Z,3.40
2023-04-10T15:31:23.846Z,2.92
2023-04-10T15:33:52.937Z,3.13
2023-04-10T15:36:20.897Z,4.80
2023-04-10T15:38:50.217Z,3.03
2023-04-10T15:41:17.965Z,3.53
2023-04-10T15:43:45.636Z,3.38
2023-04-10T15:46:13.701Z,4.75
2023-04-10T15:48:41.287Z,3.80
2023-04-10T15:51:09.014Z,3.30
2023-04-10T15:53:36.707Z,3.80
2023-04-10T15:56:07.593Z,3.97
2023-04-10T15:58:35.243Z,4.20
2023-04-10T16:01:02.804Z,3.35
2023-04-10T16:03:30.716Z,4.18
2023-04-10T16:05:59.600Z,3.72
2023-04-10T16:08:28.112Z,3.33
2023-04-10T16:10:56.555Z,3.78
2023-04-10T16:13:24.053Z,3.17
2023-04-10T16:15:51.722Z,2.60
2023-04-10T16:18:19.674Z,2.90
2023-04-10T16:20:47.217Z,3.53
2023-04-10T16:23:14.778Z,3.55
2023-04-10T16:25:42.359Z,4.53
2023-04-10T16:28:10.055Z,3.28
2023-04-10T16:30:38.000Z,4.45
2023-04-10T16:33:05.548Z,4.43
2023-04-10T16:35:33.245Z,2.97
2023-04-10T16:38:00.832Z,3.22
2023-04-10T16:40:33.110Z,4.05
2023-04-10T16:43:03.973Z,3.72
2023-04-10T16:45:31.664Z,4.25
2023-04-10T16:47:59.200Z,3.70
2023-04-10T16:50:26.827Z,3.95
2023-04-10T16:52:54.642Z,2.80
2023-04-10T16:55:22.123Z,2.83
2023-04-10T16:57:49.875Z,4.43
2023-04-10T17:00:17.495Z,3.72
2023-04-10T17:02:45.083Z,3.67
2023-04-10T17:05:14.167Z,4.97
2023-04-10T17:07:43.668Z,5.30
2023-04-10T17:10:12.610Z,4.07
2023-04-10T17:12:40.347Z,4.43
2023-04-10T17:15:08.139Z,4.47
2023-04-10T17:17:35.731Z,5.10
2023-04-10T17:20:04.154Z,4.78
2023-04-10T17:22:31.781Z,3.60
2023-04-10T17:24:59.319Z,3.88
2023-04-10T17:27:27.080Z,3.13
2023-04-10T17:29:55.617Z,3.45
2023-04-10T17:32:23.141Z,4.00
2023-04-10T17:34:50.917Z,3.25
2023-04-10T17:37:20.596Z,4.38
2023-04-10T17:39:48.150Z,2.90
2023-04-10T17:42:16.771Z,4.30
2023-04-10T17:44:44.247Z,3.25
2023-04-10T17:47:11.785Z,4.18
2023-04-10T17:49:41.761Z,4.70
2023-04-10T17:52:09.623Z,3.40
2023-04-10T17:54:37.770Z,2.88
2023-04-10T17:57:05.552Z,4.47
2023-04-10T17:59:33.066Z,4.03
2023-04-10T18:02:00.757Z,4.00
2023-04-10T18:04:33.042Z,3.88
2023-04-10T18:07:03.530Z,3.63
2023-04-10T18:09:31.637Z,3.25
2023-04-10T18:11:59.129Z,3.92
2023-04-10T18:14:26.809Z,4.07
2023-04-10T18:16:54.401Z,2.63
2023-04-10T18:19:22.002Z,4.75
2023-04-10T18:21:50.036Z,3.97
2023-04-10T18:24:17.506Z,4.05
2023-04-10T18:26:45.972Z,4.20
2023-04-10T18:29:13.724Z,3.28
2023-04-10T18:31:41.256Z,2.97
2023-04-10T18:34:08.996Z,3.03
2023-04-10T18:36:36.511Z,4.43
2023-04-10T18:39:05.357Z,3.22
2023-04-10T18:41:33.506Z,4.30
2023-04-10T18:44:05.029Z,3.65
2023-04-10T18:46:33.488Z,4.10
2023-04-10T18:49:01.599Z,5.18
2023-04-10T18:51:29.389Z,3.80
2023-04-10T18:53:57.374Z,4.32
2023-04-10T18:56:25.039Z,3.97
2023-04-10T18:58:52.563Z,3.83
2023-04-10T19:01:20.347Z,3.45
2023-04-10T19:03:50.850Z,3.95
2023-04-10T19:06:24.641Z,3.47
2023-04-10T19:08:52.384Z,2.93
2023-04-10T19:11:19.999Z,3.65
2023-04-10T19:13:47.526Z,3.60
2023-04-10T19:16:15.091Z,5.22
2023-04-10T19:18:42.790Z,4.13
2023-04-10T19:21:10.302Z,4.20
2023-04-10T19:23:40.203Z,3.65
2023-04-10T19:26:08.276Z,4.90
2023-04-10T19:28:36.339Z,4.22
2023-04-10T19:31:04.150Z,4.43
2023-04-10T19:33:31.755Z,4.18
2023-04-10T19:35:59.761Z,4.07
2023-04-10T19:38:28.155Z,3.75
2023-04-10T19:40:55.841Z,3.85
2023-04-10T19:43:23.525Z,4.22
2023-04-10T19:45:51.277Z,5.25
2023-04-10T19:48:19.180Z,4.28
2023-04-10T19:50:46.644Z,5.35
2023-04-10T19:53:16.410Z,5.43
2023-04-10T19:55:45.556Z,4.57
2023-04-10T19:58:30.012Z,5.32
2023-04-10T20:01:07.273Z,3.90
2023-04-10T20:03:36.472Z,5.00
2023-04-10T20:06:04.819Z,3.97
2023-04-10T20:08:32.342Z,4.45
2023-04-10T20:11:00.393Z,4.15
2023-04-10T20:13:28.019Z,4.63
2023-04-10T20:15:58.636Z,5.57
2023-04-10T20:18:26.222Z,4.38
2023-04-10T20:20:53.825Z,4.35
2023-04-10T20:23:21.476Z,4.03
2023-04-10T20:25:49.905Z,5.50
2023-04-10T20:28:18.204Z,5.10
2023-04-10T20:30:45.983Z,4.13
2023-04-10T20:33:13.486Z,5.57
2023-04-10T20:35:41.136Z,4.65
2023-04-10T20:38:08.838Z,4.30
2023-04-10T20:40:37.082Z,4.35
2023-04-10T20:43:11.386Z,4.93
2023-04-10T20:45:39.833Z,4.32
2023-04-10T20:48:07.767Z,3.95
2023-04-10T20:50:35.272Z,3.58
2023-04-10T20:53:02.927Z,4.40
2023-04-10T20:55:30.358Z,4.05
2023-04-10T20:57:58.709Z,4.45
2023-04-10T21:00:26.409Z,5.32
2023-04-10T21:02:54.063Z,5.03
2023-04-10T21:05:22.019Z,5.03
2023-04-10T21:07:49.512Z,4.40
2023-04-10T21:10:17.026Z,3.80
2023-04-10T21:12:44.724Z,4.45
2023-04-10T21:15:12.426Z,5.40
2023-04-10T21:17:40.219Z,4.43
2023-04-10T21:20:08.005Z,5.00
2023-04-10T21:22:38.038Z,4.32
2023-04-10T21:25:05.887Z,4.70
2023-04-10T21:27:33.362Z,4.40
2023-04-10T21:30:01.259Z,3.58
2023-04-10T21:32:28.922Z,4.88
2023-04-10T21:34:56.539Z,4.30
2023-04-10T21:37:24.931Z,4.53
2023-04-10T21:39:52.471Z,4.40
2023-04-10T21:42:20.026Z,4.63
2023-04-10T21:44:47.593Z,4.35
2023-04-10T21:47:15.120Z,4.55
2023-04-10T21:49:42.647Z,3.85
2023-04-10T21:52:11.780Z,4.00
2023-04-10T21:54:39.432Z,4.32
2023-04-10T21:57:07.000Z,5.03
2023-04-10T21:59:34.600Z,4.20
2023-04-10T22:02:02.189Z,4.45
2023-04-10T22:04:33.185Z,3.70
2023-04-10T22:07:03.683Z,4.05
2023-04-10T22:09:32.632Z,3.88
2023-04-10T22:12:00.203Z,4.28
2023-04-10T22:14:28.399Z,4.03
2023-04-10T22:16:56.699Z,3.65
2023-04-10T22:19:25.986Z,3.17
2023-04-10T22:21:53.535Z,3.53
2023-04-10T22:24:20.979Z,3.45
2023-04-10T22:26:48.528Z,3.50
2023-04-10T22:29:16.086Z,3.75
2023-04-10T22:31:44.404Z,3.03
2023-04-10T22:34:12.098Z,3.63
2023-04-10T22:36:39.596Z,2.60
2023-04-10T22:39:07.437Z,4.63
2023-04-10T22:41:34.900Z,4.53
2023-04-10T22:44:02.552Z,3.75
2023-04-10T22:46:31.057Z,3.28
2023-04-10T22:48:58.579Z,3.15
2023-04-10T22:51:27.447Z,5.82
2023-04-10T22:53:54.938Z,3.83
2023-04-10T22:56:26.827Z,3.38
2023-04-10T22:58:55.058Z,4.07
2023-04-10T23:01:22.795Z,4.70
2023-04-10T23:03:54.235Z,3.75
2023-04-10T23:06:21.813Z,4.07
2023-04-10T23:08:49.660Z,3.83
2023-04-10T23:11:17.260Z,3.85
2023-04-10T23:13:44.921Z,3.38
2023-04-10T23:16:12.814Z,3.42
2023-04-10T23:18:40.406Z,4.20
2023-04-10T23:21:08.209Z,3.92
2023-04-10T23:23:35.904Z,4.80
2023-04-10T23:26:03.474Z,3.40
2023-04-10T23:28:31.027Z,3.30
2023-04-10T23:30:58.597Z,3.85
2023-04-10T23:33:26.220Z,5.00
2023-04-10T23:35:53.809Z,4.07
2023-04-10T23:38:21.943Z,4.80
2023-04-10T23:40:49.732Z,3.92
2023-04-10T23:43:17.873Z,4.63
2023-04-10T23:45:45.541Z,3.78
2023-04-10T23:48:13.202Z,3.42
2023-04-10T23:50:40.881Z,4.60
2023-04-10T23:53:09.374Z,3.30
2023-04-10T23:55:37.328Z,3.80
2023-04-10T23:58:04.877Z,4.03
